logo dgac
Jueves 21 de Septiembre del 2017
Buscar por aerodromo o helipuerto
Ingrese nombre de aeródromo, localidad o designador OACI:
METAR del 22-09-2017 a las 00:00 UTC
METAR SCIP 220000Z 33017KT 9999 SCT020 BKN250 21/17 Q1021 NOSIG
Viento: dirección 330 grados, velocidad 17 nudos
Visibilidad: 10 km o más
Nubes: Nubosidad parcial a 2000 pies sobre el nivel del aeródromo
Nubes: Nublado a 25000 pies sobre el nivel del aeródromo
Temperatura: 21 °C
Rocío: 17 °C
Humedad_relativa: 78%
Presión: 1021 hPa
No se esperan cambios significativos en las próximas 2 horas
METAR del 21-09-2017 a las 23:00 UTC
METAR SCIP 212300Z 32020KT 9999 SCT020 BKN250 22/17 Q1021 NOSIG
Viento: dirección 320 grados, velocidad 20 nudos
Visibilidad: 10 km o más
Nubes: Nubosidad parcial a 2000 pies sobre el nivel del aeródromo
Nubes: Nublado a 25000 pies sobre el nivel del aeródromo
Temperatura: 22 °C
Rocío: 17 °C
Humedad_relativa: 73%
Presión: 1021 hPa
No se esperan cambios significativos en las próximas 2 horas
METAR del 21-09-2017 a las 22:00 UTC
METAR SCIP 212200Z 32021KT 9999 SCT020 SCT160 BKN250 21/17 Q1022 NOSIG
Viento: dirección 320 grados, velocidad 21 nudos
Visibilidad: 10 km o más
Nubes: Nubosidad parcial a 2000 pies sobre el nivel del aeródromo
Nubes: Nubosidad parcial a 16000 pies sobre el nivel del aeródromo
Nubes: Nublado a 25000 pies sobre el nivel del aeródromo
Temperatura: 21 °C
Rocío: 17 °C
Humedad_relativa: 78%
Presión: 1022 hPa
No se esperan cambios significativos en las próximas 2 horas
METAR del 21-09-2017 a las 21:00 UTC
METAR SCIP 212100Z 32019KT 9999 SCT015 SCT120 22/17 Q1022 NOSIG
Viento: dirección 320 grados, velocidad 19 nudos
Visibilidad: 10 km o más
Nubes: Nubosidad parcial a 1500 pies sobre el nivel del aeródromo
Nubes: Nubosidad parcial a 12000 pies sobre el nivel del aeródromo
Temperatura: 22 °C
Rocío: 17 °C
Humedad_relativa: 73%
Presión: 1022 hPa
No se esperan cambios significativos en las próximas 2 horas
METAR del 21-09-2017 a las 21:00 UTC
METAR SCIP 212100Z 32019KT 9999 SCT015 SCT120 22/17 Q1022 NOSIG
Viento: dirección 320 grados, velocidad 19 nudos
Visibilidad: 10 km o más
Nubes: Nubosidad parcial a 1500 pies sobre el nivel del aeródromo
Nubes: Nubosidad parcial a 12000 pies sobre el nivel del aeródromo
Temperatura: 22 °C
Rocío: 17 °C
Humedad_relativa: 73%
Presión: 1022 hPa
No se esperan cambios significativos en las próximas 2 horas
METAR del 21-09-2017 a las 20:00 UTC
METAR SCIP 212000Z 33018KT 8000 -SHRA SCT015 BKN025 20/18 Q1023 NOSIG
Viento: dirección 330 grados, velocidad 18 nudos
Visibilidad: 8000 metros
Débil ChubascosLluvia
Nubes: Nubosidad parcial a 1500 pies sobre el nivel del aeródromo
Nubes: Nublado a 2500 pies sobre el nivel del aeródromo
Temperatura: 20 °C
Rocío: 18 °C
Humedad_relativa: 88%
Presión: 1023 hPa
No se esperan cambios significativos en las próximas 2 horas
METAR del 21-09-2017 a las 20:00 UTC
METAR SCIP 212000Z 33018KT 8000 -SHRA SCT015 BKN025 20/18 Q1023 NOSIG
Viento: dirección 330 grados, velocidad 18 nudos
Visibilidad: 8000 metros
Débil ChubascosLluvia
Nubes: Nubosidad parcial a 1500 pies sobre el nivel del aeródromo
Nubes: Nublado a 2500 pies sobre el nivel del aeródromo
Temperatura: 20 °C
Rocío: 18 °C
Humedad_relativa: 88%
Presión: 1023 hPa
No se esperan cambios significativos en las próximas 2 horas
METAR del 21-09-2017 a las 20:00 UTC
METAR SCIP 212000Z 33018KT 8000 -SHRA SCT015 BKN025 20/18 Q1023 NOSIG
Viento: dirección 330 grados, velocidad 18 nudos
Visibilidad: 8000 metros
Débil ChubascosLluvia
Nubes: Nubosidad parcial a 1500 pies sobre el nivel del aeródromo
Nubes: Nublado a 2500 pies sobre el nivel del aeródromo
Temperatura: 20 °C
Rocío: 18 °C
Humedad_relativa: 88%
Presión: 1023 hPa
No se esperan cambios significativos en las próximas 2 horas
SPECI del 21-09-2017 a las 19:05 UTC
SPECI SCIP 211905Z 32018KT 4000 -SHRA SCT015 BKN040 19/17 Q1024 NOSIG
Viento: dirección 320 grados, velocidad 18 nudos
Visibilidad: 4000 metros
Débil ChubascosLluvia
Nubes: Nubosidad parcial a 1500 pies sobre el nivel del aeródromo
Nubes: Nublado a 4000 pies sobre el nivel del aeródromo
Temperatura: 19 °C
Rocío: 17 °C
Humedad_relativa: 88%
Presión: 1024 hPa
No se esperan cambios significativos en las próximas 2 horas
METAR del 21-09-2017 a las 19:00 UTC
METAR SCIP 211900Z 32017KT 9999 SCT015 BKN040 21/18 Q1023 RESHRA NOSIG
Viento: dirección 320 grados, velocidad 17 nudos
Visibilidad: 10 km o más
Nubes: Nubosidad parcial a 1500 pies sobre el nivel del aeródromo
Nubes: Nublado a 4000 pies sobre el nivel del aeródromo
Temperatura: 21 °C
Rocío: 18 °C
Humedad_relativa: 83%
Presión: 1023 hPa
Se observó recientemente ChubascosLluvia
No se esperan cambios significativos en las próximas 2 horas